Time;durP1;ratioP1;P1;durP2;ratioP2;P2;SDS_P1;SDS_P2;PMS_P1;PMS_P2;Temp;Humidity;BMP_temperature;BMP_pressure;BME280_temperature;BME280_humidity;BME280_pressure;Samples;Min_cycle;Max_cycle;Signal;HPM_P1;HPM_P2
2023/11/14 00:00:14;;;;;;;6.00;5.00;;;;;;;3.15;94.69;97460.88;109265;1253;74884;-85
2023/11/14 00:02:41;;;;;;;6.40;5.10;;;;;;;3.18;95.07;97463.20;109270;1253;72747;-85
2023/11/14 00:05:08;;;;;;;8.30;5.30;;;;;;;3.20;95.07;97475.44;109261;1253;60982;-84
2023/11/14 00:07:35;;;;;;;5.60;5.10;;;;;;;3.23;95.07;97466.25;109237;1253;59969;-84
2023/11/14 00:10:03;;;;;;;7.10;6.10;;;;;;;3.25;94.84;97469.70;109230;1254;74638;-84
2023/11/14 00:12:30;;;;;;;7.20;6.20;;;;;;;3.27;94.83;97477.21;109306;1252;74268;-84
2023/11/14 00:14:57;;;;;;;7.20;5.40;;;;;;;3.29;95.42;97464.89;109332;1252;71680;-82
2023/11/14 00:17:24;;;;;;;8.60;6.10;;;;;;;3.34;96.80;97458.06;109289;1253;60758;-84
2023/11/14 00:19:53;;;;;;;6.90;6.30;;;;;;;3.41;96.70;97445.09;109268;1253;59704;-84
2023/11/14 00:22:20;;;;;;;6.60;5.90;;;;;;;3.48;96.99;97441.20;109347;1253;74289;-84
2023/11/14 00:24:48;;;;;;;7.60;6.50;;;;;;;3.55;96.68;97424.70;109286;1252;73184;-85
2023/11/14 00:27:15;;;;;;;8.60;6.80;;;;;;;3.62;96.96;97420.41;108985;1253;73282;-86
2023/11/14 00:29:42;;;;;;;8.50;6.30;;;;;;;3.67;96.63;97406.70;109319;1252;59796;-85
2023/11/14 00:32:10;;;;;;;6.80;5.90;;;;;;;3.70;96.31;97395.86;109335;1252;60991;-84
2023/11/14 00:34:37;;;;;;;8.80;6.80;;;;;;;3.71;95.84;97393.36;109395;1252;74339;-84
2023/11/14 00:37:04;;;;;;;9.70;6.80;;;;;;;3.71;95.87;97392.27;109328;1253;74607;-84
2023/11/14 00:39:32;;;;;;;7.70;6.80;;;;;;;3.71;96.12;97395.79;109386;1253;72304;-84
2023/11/14 00:41:59;;;;;;;6.70;5.90;;;;;;;3.73;96.12;97392.70;109214;1252;59825;-86
2023/11/14 00:44:27;;;;;;;6.60;5.90;;;;;;;3.75;96.38;97383.01;109222;1252;59987;-85
2023/11/14 00:46:54;;;;;;;7.30;6.60;;;;;;;3.78;96.20;97362.30;109070;1253;74330;-84
2023/11/14 00:49:21;;;;;;;6.30;5.70;;;;;;;3.80;96.36;97351.73;109271;1253;73513;-85
2023/11/14 00:51:48;;;;;;;5.80;5.00;;;;;;;3.82;96.16;97336.02;109197;1253;71023;-85
2023/11/14 00:54:15;;;;;;;8.10;6.70;;;;;;;3.85;96.05;97345.05;109243;1253;108037;-84
2023/11/14 00:56:42;;;;;;;10.60;8.20;;;;;;;3.87;96.05;97344.09;109232;1253;60399;-83
2023/11/14 00:59:09;;;;;;;8.90;7.30;;;;;;;3.87;95.61;97336.41;109248;1254;74566;-84
2023/11/14 01:01:36;;;;;;;7.40;6.20;;;;;;;3.89;95.42;97325.34;109179;1254;72778;-84
2023/11/14 01:04:04;;;;;;;7.80;6.50;;;;;;;3.91;95.47;97321.85;109342;1253;72456;-84
2023/11/14 01:06:32;;;;;;;6.30;5.70;;;;;;;3.93;95.50;97324.92;109243;1253;59700;-84
2023/11/14 01:09:00;;;;;;;7.10;5.60;;;;;;;3.95;95.83;97325.85;109217;1254;59342;-84
2023/11/14 01:11:28;;;;;;;8.30;5.50;;;;;;;3.98;96.25;97328.34;109186;1253;74280;-84
2023/11/14 01:13:55;;;;;;;6.00;5.00;;;;;;;4.00;96.16;97328.74;108984;1253;73077;-85
2023/11/14 01:16:23;;;;;;;7.70;5.70;;;;;;;4.04;96.31;97308.16;109149;1252;72636;-84
2023/11/14 01:18:51;;;;;;;7.90;5.90;;;;;;;4.06;96.43;97311.03;109133;1253;59652;-85
2023/11/14 01:21:18;;;;;;;7.20;6.10;;;;;;;4.09;96.45;97307.84;109224;1254;61324;-84
2023/11/14 01:23:45;;;;;;;9.00;5.70;;;;;;;4.12;96.53;97302.16;109182;1253;74552;-84
2023/11/14 01:26:13;;;;;;;6.10;5.40;;;;;;;4.15;97.09;97292.56;109269;1253;74183;-84
2023/11/14 01:28:41;;;;;;;7.00;5.60;;;;;;;4.19;97.69;97276.27;109262;1253;72603;-84
2023/11/14 01:31:20;;;;;;;5.90;5.30;;;;;;;4.22;98.09;97266.48;109251;1254;61006;-84
2023/11/14 01:33:47;;;;;;;6.30;5.60;;;;;;;4.26;98.84;97255.59;109308;1253;59149;-84
2023/11/14 01:36:14;;;;;;;6.60;5.80;;;;;;;4.30;99.42;97249.71;109175;1253;74725;-84
2023/11/14 01:38:41;;;;;;;7.80;6.50;;;;;;;4.33;99.73;97244.52;109381;1253;74478;-84
2023/11/14 01:41:08;;;;;;;7.40;6.70;;;;;;;4.36;99.99;97229.98;109358;1252;72424;-84
2023/11/14 01:43:47;;;;;;;7.00;6.30;;;;;;;4.39;100.00;97229.11;109432;1253;60232;-84
2023/11/14 01:46:16;;;;;;;8.20;5.70;;;;;;;4.42;100.00;97207.65;109209;1253;59310;-84
2023/11/14 01:48:46;;;;;;;8.40;7.00;;;;;;;4.45;100.00;97198.59;109417;1252;75661;-84
2023/11/14 01:51:14;;;;;;;6.60;5.30;;;;;;;4.48;100.00;97188.99;109537;1254;74306;-84
2023/11/14 01:53:42;;;;;;;6.70;5.70;;;;;;;4.52;100.00;97180.05;109539;1253;72501;-84
2023/11/14 01:56:09;;;;;;;7.30;4.50;;;;;;;4.57;100.00;97176.76;109341;1254;60961;-84
2023/11/14 01:58:37;;;;;;;7.00;4.90;;;;;;;4.61;100.00;97170.78;109282;1253;61182;-84
2023/11/14 02:01:04;;;;;;;6.10;5.30;;;;;;;4.66;100.00;97168.72;109307;1252;73444;-84
2023/11/14 02:03:33;;;;;;;5.50;4.60;;;;;;;4.70;100.00;97168.08;109275;1254;73256;-84
2023/11/14 02:06:01;;;;;;;5.30;4.00;;;;;;;4.76;100.00;97164.02;109275;1253;72401;-83
2023/11/14 02:08:30;;;;;;;3.40;2.60;;;;;;;4.80;100.00;97149.70;109019;1253;62022;-85
2023/11/14 02:10:58;;;;;;;4.80;3.80;;;;;;;4.84;100.00;97141.63;109147;1253;59361;-82
2023/11/14 02:13:25;;;;;;;3.70;3.40;;;;;;;4.89;100.00;97151.39;109248;1253;74756;-84
2023/11/14 02:15:53;;;;;;;3.50;3.20;;;;;;;4.94;100.00;97164.77;109317;1254;73875;-84
2023/11/14 02:18:20;;;;;;;2.80;2.50;;;;;;;4.98;100.00;97162.52;109168;1253;72479;-83
2023/11/14 02:20:47;;;;;;;2.40;1.70;;;;;;;5.03;100.00;97161.84;109027;1254;59894;-84
2023/11/14 02:23:17;;;;;;;2.10;1.90;;;;;;;5.08;100.00;97161.48;109326;1253;59098;-84
2023/11/14 02:25:45;;;;;;;0.90;0.80;;;;;;;5.17;100.00;97158.59;109440;1252;73850;-83
2023/11/14 02:28:13;;;;;;;1.90;0.50;;;;;;;5.30;100.00;97156.13;109223;1259;72929;-84
2023/11/14 02:30:41;;;;;;;0.60;0.30;;;;;;;5.47;100.00;97153.38;109209;1252;71451;-83
2023/11/14 02:33:08;;;;;;;1.00;0.40;;;;;;;5.65;100.00;97164.89;109114;1253;60969;-84
2023/11/14 02:35:35;;;;;;;0.30;0.30;;;;;;;5.87;100.00;97159.00;109249;1252;59420;-83
2023/11/14 02:38:02;;;;;;;0.10;0.10;;;;;;;6.07;99.86;97162.05;109244;1253;74293;-84
2023/11/14 02:40:29;;;;;;;0.30;0.30;;;;;;;6.30;99.49;97163.77;109045;1253;75644;-85
2023/11/14 02:42:58;;;;;;;0.30;0.30;;;;;;;6.50;99.27;97148.86;109232;1253;72368;-85
2023/11/14 02:45:26;;;;;;;0.20;0.20;;;;;;;6.65;98.42;97144.56;109264;1253;60271;-83
2023/11/14 02:47:54;;;;;;;0.60;0.20;;;;;;;6.78;97.78;97156.41;109301;1253;60646;-85
2023/11/14 02:50:52;;;;;;;0.10;0.10;;;;;;;6.90;97.36;97139.19;109325;1253;75320;-85
2023/11/14 02:53:20;;;;;;;0.30;0.30;;;;;;;6.99;97.59;97134.59;109293;1253;74289;-85
2023/11/14 02:55:48;;;;;;;0.50;0.50;;;;;;;7.03;97.70;97134.08;109277;1254;72656;-82
2023/11/14 02:58:15;;;;;;;0.90;0.70;;;;;;;7.07;97.67;97130.79;109242;1254;61291;-83
2023/11/14 03:00:47;;;;;;;1.20;0.40;;;;;;;7.09;98.12;97130.06;109259;1253;60203;-82
2023/11/14 03:03:18;;;;;;;0.30;0.30;;;;;;;7.10;98.23;97122.67;109230;1254;73484;-85
2023/11/14 03:05:45;;;;;;;0.20;0.20;;;;;;;7.11;98.34;97117.84;109342;1252;73483;-84
2023/11/14 03:08:12;;;;;;;0.10;0.10;;;;;;;7.11;98.57;97126.88;109208;1253;72438;-84
2023/11/14 03:10:39;;;;;;;0.20;0.20;;;;;;;7.11;98.70;97139.70;109190;1254;61130;-84
2023/11/14 03:13:08;;;;;;;0.20;0.20;;;;;;;7.11;98.95;97126.75;109328;1252;59937;-84
2023/11/14 03:15:36;;;;;;;0.10;0.10;;;;;;;7.11;99.19;97121.21;109236;1254;74602;-84
2023/11/14 03:18:05;;;;;;;0.00;0.00;;;;;;;7.12;99.18;97107.95;109288;1252;72172;-83
2023/11/14 03:20:32;;;;;;;0.30;0.20;;;;;;;7.13;99.18;97104.32;109330;1253;70983;-84
2023/11/14 03:23:02;;;;;;;0.10;0.10;;;;;;;7.13;98.36;97104.16;109267;1253;60532;-84
2023/11/14 03:25:30;;;;;;;0.10;0.10;;;;;;;7.14;97.72;97115.48;109416;1253;59491;-84
2023/11/14 03:27:58;;;;;;;0.10;0.10;;;;;;;7.15;97.49;97116.76;109317;1254;73313;-85
2023/11/14 03:30:26;;;;;;;1.10;0.40;;;;;;;7.17;97.38;97113.98;109354;1254;74209;-84
2023/11/14 03:32:54;;;;;;;1.80;0.40;;;;;;;7.20;97.23;97120.52;109296;1254;71462;-84
2023/11/14 03:35:22;;;;;;;0.10;0.10;;;;;;;7.21;96.45;97114.88;109248;1252;60464;-84
2023/11/14 03:37:50;;;;;;;0.10;0.10;;;;;;;7.23;96.13;97102.07;109343;1254;59314;-84
2023/11/14 03:40:17;;;;;;;0.30;0.20;;;;;;;7.27;96.40;97102.41;109275;1254;74554;-84
2023/11/14 03:42:45;;;;;;;0.10;0.10;;;;;;;7.28;96.12;97103.18;109208;1253;73059;-84
2023/11/14 03:45:12;;;;;;;0.20;0.20;;;;;;;7.30;96.15;97088.27;109372;1253;70943;-82
2023/11/14 03:47:39;;;;;;;0.30;0.20;;;;;;;7.31;96.29;97083.17;109002;1254;61131;-84
2023/11/14 03:50:07;;;;;;;0.20;0.20;;;;;;;7.32;96.64;97076.52;109047;1253;59277;-84
2023/11/14 03:52:36;;;;;;;1.60;0.40;;;;;;;7.33;97.05;97081.80;109168;1253;74623;-84
2023/11/14 03:55:05;;;;;;;0.30;0.20;;;;;;;7.34;97.07;97068.71;109162;1253;74436;-84
2023/11/14 03:57:32;;;;;;;0.10;0.10;;;;;;;7.37;97.17;97084.00;108973;1254;72754;-83
2023/11/14 03:59:59;;;;;;;0.10;0.10;;;;;;;7.39;97.11;97101.79;109072;1253;61109;-84
2023/11/14 04:02:26;;;;;;;0.10;0.10;;;;;;;7.41;97.51;97089.69;109215;1253;59517;-84
2023/11/14 04:04:54;;;;;;;1.60;0.10;;;;;;;7.46;97.94;97114.82;109247;1254;73650;-84
2023/11/14 04:07:21;;;;;;;0.30;0.30;;;;;;;7.50;98.36;97123.91;109283;1253;73043;-85
2023/11/14 04:09:49;;;;;;;0.20;0.20;;;;;;;7.53;98.67;97123.48;109204;1254;71804;-84
2023/11/14 04:12:15;;;;;;;0.30;0.30;;;;;;;7.56;99.15;97122.56;109025;1254;61352;-84
2023/11/14 04:14:43;;;;;;;0.20;0.20;;;;;;;7.57;99.83;97115.36;109156;1254;59097;-84
2023/11/14 04:17:10;;;;;;;0.60;0.30;;;;;;;7.57;100.00;97093.80;109145;1254;73006;-83
2023/11/14 04:19:37;;;;;;;0.10;0.00;;;;;;;7.56;100.00;97091.20;109060;1259;75927;-83
2023/11/14 04:22:04;;;;;;;0.10;0.10;;;;;;;7.55;100.00;97076.00;109046;1253;72068;-85
2023/11/14 04:24:34;;;;;;;0.40;0.20;;;;;;;7.52;100.00;97107.19;109081;1254;60895;-83
2023/11/14 04:27:01;;;;;;;0.20;0.10;;;;;;;7.50;100.00;97083.83;109190;1258;59622;-84
2023/11/14 04:29:29;;;;;;;0.10;0.10;;;;;;;7.49;100.00;97086.77;109218;1253;75896;-84
2023/11/14 04:31:57;;;;;;;0.30;0.20;;;;;;;7.47;100.00;97085.65;109168;1254;74276;-85
2023/11/14 04:34:26;;;;;;;0.30;0.20;;;;;;;7.46;100.00;97094.86;109089;1254;72070;-84
2023/11/14 04:36:53;;;;;;;0.60;0.50;;;;;;;7.46;100.00;97084.35;109072;1254;61379;-84
2023/11/14 04:39:20;;;;;;;1.20;0.80;;;;;;;7.46;100.00;97074.39;109167;1254;60186;-84
2023/11/14 04:41:47;;;;;;;0.50;0.40;;;;;;;7.45;100.00;97087.42;109214;1254;72369;-84
2023/11/14 04:44:14;;;;;;;0.40;0.20;;;;;;;7.44;100.00;97091.46;109231;1254;72932;-85
2023/11/14 04:46:43;;;;;;;0.40;0.30;;;;;;;7.43;100.00;97092.09;109314;1253;71400;-85
2023/11/14 04:49:11;;;;;;;0.40;0.20;;;;;;;7.40;100.00;97088.39;109108;1254;62106;-85
2023/11/14 04:51:38;;;;;;;0.30;0.20;;;;;;;7.38;100.00;97077.48;109281;1254;59963;-85
2023/11/14 04:54:05;;;;;;;0.40;0.20;;;;;;;7.35;100.00;97079.64;109171;1252;74749;-85
2023/11/14 04:56:34;;;;;;;0.70;0.30;;;;;;;7.32;100.00;97065.86;109278;1253;74670;-84
2023/11/14 04:59:02;;;;;;;1.40;0.70;;;;;;;7.30;100.00;97063.02;109270;1253;72990;-85
2023/11/14 05:01:30;;;;;;;0.80;0.50;;;;;;;7.28;100.00;97060.08;109166;1253;62094;-84
2023/11/14 05:03:57;;;;;;;0.50;0.40;;;;;;;7.28;100.00;97078.41;109270;1253;59196;-84
2023/11/14 05:06:24;;;;;;;1.30;0.30;;;;;;;7.29;100.00;97070.69;109282;1253;75786;-84
2023/11/14 05:08:52;;;;;;;0.20;0.20;;;;;;;7.33;100.00;97093.56;109307;1253;74184;-84
2023/11/14 05:11:19;;;;;;;0.20;0.20;;;;;;;7.35;100.00;97080.23;109185;1254;72626;-85
2023/11/14 05:13:46;;;;;;;0.10;0.10;;;;;;;7.38;100.00;97084.60;109355;1254;61155;-84
2023/11/14 05:16:13;;;;;;;1.30;0.10;;;;;;;7.41;100.00;97080.07;109427;1253;59112;-84
2023/11/14 05:18:50;;;;;;;0.30;0.10;;;;;;;7.46;100.00;97080.60;109285;1254;75618;-85
2023/11/14 05:21:18;;;;;;;1.10;0.30;;;;;;;7.49;100.00;97118.14;109272;1252;73646;-85
2023/11/14 05:23:45;;;;;;;0.30;0.20;;;;;;;7.52;100.00;97111.31;109401;1254;72655;-84
2023/11/14 05:26:11;;;;;;;0.70;0.50;;;;;;;7.55;100.00;97084.69;109537;1252;60123;-84
2023/11/14 05:28:38;;;;;;;0.90;0.60;;;;;;;7.58;100.00;97004.64;109449;1254;59205;-85
2023/11/14 05:31:07;;;;;;;0.50;0.40;;;;;;;7.61;100.00;96996.60;109280;1254;74342;-85
2023/11/14 05:33:34;;;;;;;0.40;0.40;;;;;;;7.62;100.00;96964.52;109229;1252;74553;-84
2023/11/14 05:36:01;;;;;;;0.20;0.20;;;;;;;7.62;100.00;96952.88;109213;1254;71638;-84
2023/11/14 05:38:29;;;;;;;0.50;0.40;;;;;;;7.63;100.00;96972.61;109239;1252;60977;-85
2023/11/14 05:40:56;;;;;;;0.20;0.20;;;;;;;7.63;100.00;96980.46;109267;1253;61095;-85
2023/11/14 05:43:24;;;;;;;0.20;0.20;;;;;;;7.63;100.00;96966.94;109291;1254;73668;-84
2023/11/14 05:45:54;;;;;;;0.20;0.10;;;;;;;7.65;100.00;96958.58;109260;1253;75211;-85
2023/11/14 05:48:21;;;;;;;0.10;0.10;;;;;;;7.68;100.00;96980.95;109347;1254;71579;-84
2023/11/14 05:50:48;;;;;;;0.40;0.20;;;;;;;7.71;100.00;96999.39;109285;1253;61071;-85
2023/11/14 05:53:15;;;;;;;1.80;0.20;;;;;;;7.75;100.00;97018.33;109181;1252;61467;-86
2023/11/14 05:55:43;;;;;;;1.20;0.90;;;;;;;7.80;100.00;97027.36;109360;1254;75562;-86
2023/11/14 05:58:10;;;;;;;3.10;2.50;;;;;;;7.84;100.00;97020.83;109257;1253;74336;-86
2023/11/14 06:00:38;;;;;;;0.20;0.10;;;;;;;7.87;100.00;97022.48;109360;1253;72689;-86
2023/11/14 06:03:07;;;;;;;0.40;0.20;;;;;;;7.92;100.00;97050.09;109051;1253;62097;-85
2023/11/14 06:05:40;;;;;;;0.20;0.20;;;;;;;7.96;100.00;97045.67;108716;1254;60988;-85
2023/11/14 06:08:08;;;;;;;0.40;0.30;;;;;;;7.99;100.00;97058.44;109084;1252;74635;-84
2023/11/14 06:10:35;;;;;;;0.10;0.10;;;;;;;8.02;100.00;97066.42;109136;1254;72338;-87
2023/11/14 06:13:16;;;;;;;0.20;0.20;;;;;;;8.05;100.00;97070.09;109227;1253;72874;-86
2023/11/14 06:15:45;;;;;;;0.40;0.10;;;;;;;8.09;100.00;97081.01;109265;1252;59838;-85
2023/11/14 06:18:12;;;;;;;0.90;0.50;;;;;;;8.12;100.00;97075.02;109358;1253;59324;-87
2023/11/14 06:20:40;;;;;;;0.40;0.40;;;;;;;8.16;100.00;97083.64;109511;1254;73854;-86
2023/11/14 06:23:07;;;;;;;0.80;0.60;;;;;;;8.18;100.00;97087.39;109338;1253;72306;-87
2023/11/14 06:25:34;;;;;;;0.50;0.40;;;;;;;8.20;100.00;97097.06;109353;1253;72560;-87
2023/11/14 06:28:02;;;;;;;0.50;0.30;;;;;;;8.22;100.00;97090.33;109321;1253;61225;-88
2023/11/14 06:30:29;;;;;;;0.30;0.30;;;;;;;8.23;100.00;97107.34;109187;1254;60062;-87
2023/11/14 06:33:00;;;;;;;1.00;0.80;;;;;;;8.25;100.00;97112.52;109231;1253;73995;-87
2023/11/14 06:35:30;;;;;;;0.60;0.50;;;;;;;8.27;100.00;97122.00;109312;1254;73434;-88
2023/11/14 06:37:57;;;;;;;0.30;0.30;;;;;;;8.30;100.00;97141.69;109200;1254;72260;-87
2023/11/14 06:40:25;;;;;;;0.40;0.30;;;;;;;8.33;100.00;97137.00;109451;1254;61573;-85
2023/11/14 06:42:52;;;;;;;0.50;0.30;;;;;;;8.38;100.00;97145.96;109483;1253;61074;-86
2023/11/14 06:45:20;;;;;;;0.60;0.50;;;;;;;8.42;100.00;97154.70;109347;1254;76283;-88
2023/11/14 06:47:51;;;;;;;0.40;0.40;;;;;;;8.47;100.00;97169.64;109322;1254;74199;-86
2023/11/14 06:50:19;;;;;;;1.00;0.90;;;;;;;8.52;100.00;97174.39;109180;1252;71052;-86
2023/11/14 06:53:07;;;;;;;0.50;0.40;;;;;;;8.58;100.00;97187.84;109305;1254;61637;-85
2023/11/14 06:55:35;;;;;;;0.60;0.60;;;;;;;8.63;100.00;97188.55;109314;1253;59248;-84
2023/11/14 06:58:03;;;;;;;0.50;0.50;;;;;;;8.69;99.96;97196.44;108602;1254;1002605;-86
2023/11/14 07:00:36;;;;;;;0.70;0.70;;;;;;;8.76;99.83;97184.48;108891;1253;60816;-85
2023/11/14 07:03:04;;;;;;;1.20;1.10;;;;;;;8.84;99.16;97202.38;109179;1253;71445;-86
2023/11/14 07:05:38;;;;;;;0.90;0.80;;;;;;;8.92;98.86;97194.56;109194;1252;61795;-86
2023/11/14 07:08:11;;;;;;;0.70;0.50;;;;;;;9.00;99.20;97188.41;109177;1253;59383;-88
2023/11/14 07:10:39;;;;;;;;;;;;;;;9.08;98.80;97195.45;109136;1254;72696;-86
2023/11/14 07:13:06;;;;;;;0.50;0.40;;;;;;;9.13;98.12;97192.85;109250;1251;75698;-86
2023/11/14 07:15:34;;;;;;;1.30;1.00;;;;;;;9.19;97.74;97192.73;109293;1253;71424;-87
2023/11/14 07:18:08;;;;;;;0.90;0.70;;;;;;;9.24;97.28;97208.02;108948;1252;61160;-88
2023/11/14 07:20:36;;;;;;;0.40;0.40;;;;;;;9.29;96.80;97199.08;109161;1253;60850;-87
2023/11/14 07:23:03;;;;;;;0.70;0.70;;;;;;;9.32;96.19;97205.73;109206;1254;74217;-86
2023/11/14 07:25:34;;;;;;;2.30;1.50;;;;;;;9.35;96.23;97206.92;109178;1253;74345;-87
2023/11/14 07:28:03;;;;;;;2.60;1.70;;;;;;;9.39;95.82;97210.71;109182;1254;72435;-86
2023/11/14 07:30:31;;;;;;;0.70;0.60;;;;;;;9.42;95.53;97204.76;109181;1252;62897;-86
2023/11/14 07:32:58;;;;;;;0.60;0.60;;;;;;;9.46;95.83;97205.35;109030;1253;60364;-87
2023/11/14 07:35:26;;;;;;;0.70;0.70;;;;;;;9.48;95.71;97213.02;108985;1253;74592;-86
2023/11/14 07:37:53;;;;;;;1.20;0.80;;;;;;;9.51;95.62;97211.36;109087;1256;74126;-85
2023/11/14 07:40:21;;;;;;;1.00;0.80;;;;;;;9.53;95.67;97219.37;109144;1253;72454;-87
2023/11/14 07:42:49;;;;;;;1.10;0.90;;;;;;;9.55;95.66;97214.02;109105;1253;61080;-85
2023/11/14 07:45:27;;;;;;;0.90;0.70;;;;;;;9.57;95.59;97212.23;108981;1252;60113;-87
2023/11/14 07:47:56;;;;;;;1.40;0.90;;;;;;;9.59;95.14;97227.27;109014;1253;75451;-86
2023/11/14 07:50:26;;;;;;;0.60;0.60;;;;;;;9.64;95.30;97222.78;108976;1254;75028;-86
2023/11/14 07:52:57;;;;;;;0.70;0.60;;;;;;;9.68;95.26;97227.95;108990;1253;71654;-86
2023/11/14 07:55:25;;;;;;;0.60;0.50;;;;;;;9.72;95.40;97235.32;108968;1254;62231;-86
2023/11/14 07:57:54;;;;;;;2.00;1.10;;;;;;;9.75;95.32;97244.48;109242;1253;62566;-84
2023/11/14 08:00:24;;;;;;;1.30;0.90;;;;;;;9.78;94.69;97250.36;108928;1253;76725;-89
2023/11/14 08:02:54;;;;;;;1.20;0.60;;;;;;;9.81;94.38;97251.36;109113;1253;74657;-88
2023/11/14 08:05:27;;;;;;;0.90;0.80;;;;;;;9.83;94.04;97262.66;109118;1253;73298;-91
2023/11/14 08:08:26;;;;;;;;;;;;;;;;;;;;;
2023/11/14 08:11:24;;;;;;;1.50;0.90;;;;;;;9.89;94.19;97249.59;108688;1258;60839;-90
2023/11/14 08:13:56;;;;;;;1.20;0.80;;;;;;;9.92;93.81;97251.15;108636;1259;74942;-91
2023/11/14 08:16:27;;;;;;;1.80;0.80;;;;;;;9.96;93.91;97250.05;108471;1259;75307;-88
2023/11/14 08:19:03;;;;;;;1.20;0.70;;;;;;;9.98;93.51;97271.21;108419;1259;71198;-89
2023/11/14 08:31:25;;;;;;;1.30;1.20;;;;;;;10.07;94.07;97268.46;106813;1279;72814;-89
2023/11/14 08:34:03;;;;;;;1.60;1.10;;;;;;;10.09;93.99;97277.05;106183;1283;74362;-88
2023/11/14 08:36:42;;;;;;;1.20;1.10;;;;;;;10.13;93.80;97269.34;106203;1284;73200;-89
2023/11/14 08:39:11;;;;;;;1.10;0.90;;;;;;;10.16;93.27;97272.36;106252;1283;63081;-88
2023/11/14 08:45:39;;;;;;;2.70;1.00;;;;;;;10.26;93.59;97274.03;105548;1293;73838;-87
2023/11/14 08:48:11;;;;;;;0.90;0.90;;;;;;;10.29;93.66;97277.89;105711;1294;75138;-89
2023/11/14 08:50:57;;;;;;;1.30;1.00;;;;;;;10.32;93.19;97271.38;105598;1291;73607;-88
2023/11/14 08:53:39;;;;;;;0.80;0.80;;;;;;;10.35;93.36;97266.26;105714;1291;60868;-88
2023/11/14 08:56:07;;;;;;;1.50;1.10;;;;;;;10.37;93.83;97263.05;105493;1293;61265;-86
2023/11/14 08:58:57;;;;;;;1.80;1.60;;;;;;;10.42;93.64;97272.51;105269;1294;600028;-85
2023/11/14 09:01:25;;;;;;;2.30;1.80;;;;;;;10.42;93.20;97269.63;108797;1255;62195;-87
2023/11/14 09:03:53;;;;;;;4.80;2.40;;;;;;;10.44;93.36;97265.85;108896;1255;61038;-86
2023/11/14 09:06:21;;;;;;;4.20;2.90;;;;;;;10.47;93.57;97269.55;108983;1256;71062;-85
2023/11/14 09:08:48;;;;;;;3.20;1.90;;;;;;;10.49;93.35;97270.80;108844;1254;74459;-86
2023/11/14 09:11:16;;;;;;;1.60;1.50;;;;;;;10.51;93.28;97265.64;108814;1254;72574;-85
2023/11/14 09:13:45;;;;;;;2.00;1.70;;;;;;;10.54;92.73;97271.11;108836;1253;145393;-86
2023/11/14 09:16:13;;;;;;;4.20;2.80;;;;;;;10.56;92.32;97265.59;108929;1253;61214;-87
2023/11/14 09:18:40;;;;;;;1.20;1.10;;;;;;;10.58;91.81;97266.23;108961;1252;73002;-85
2023/11/14 09:21:08;;;;;;;2.30;1.40;;;;;;;10.62;91.05;97279.14;109058;1253;72041;-85
2023/11/14 09:23:38;;;;;;;1.90;1.40;;;;;;;10.68;90.93;97271.81;108787;1253;71401;-87
2023/11/14 09:26:07;;;;;;;1.40;1.00;;;;;;;10.76;90.77;97279.69;109185;1253;61587;-87
2023/11/14 09:28:36;;;;;;;1.10;1.00;;;;;;;10.84;89.99;97272.39;108930;1252;61112;-84
2023/11/14 09:31:10;;;;;;;1.80;1.50;;;;;;;10.92;89.78;97268.83;108925;1254;73831;-84
2023/11/14 09:34:01;;;;;;;3.20;2.50;;;;;;;10.99;89.29;97264.48;108938;1253;73994;-86
2023/11/14 09:36:28;;;;;;;2.70;2.00;;;;;;;11.05;88.68;97267.33;108985;1254;71909;-86
2023/11/14 09:38:56;;;;;;;2.80;1.80;;;;;;;11.09;88.02;97273.40;109025;1253;62001;-86
2023/11/14 09:41:32;;;;;;;3.00;1.70;;;;;;;11.11;87.89;97284.13;108708;1257;59646;-87
2023/11/14 09:44:04;;;;;;;3.50;1.90;;;;;;;11.12;87.74;97282.83;108826;1254;72818;-88
2023/11/14 09:46:55;;;;;;;2.50;1.50;;;;;;;11.13;88.11;97283.96;108556;1259;73761;-87
2023/11/14 09:49:26;;;;;;;2.60;1.50;;;;;;;11.14;88.24;97281.25;108869;1253;72587;-86
2023/11/14 09:52:03;;;;;;;1.80;1.60;;;;;;;11.13;88.17;97287.75;108806;1252;61938;-86
2023/11/14 09:54:42;;;;;;;2.00;1.80;;;;;;;11.11;86.94;97294.67;108723;1254;60625;-86
2023/11/14 09:57:21;;;;;;;2.90;2.40;;;;;;;11.11;87.34;97284.88;108779;1253;73499;-87
2023/11/14 09:59:50;;;;;;;2.60;2.10;;;;;;;11.11;87.64;97283.65;108772;1253;74874;-85
2023/11/14 10:02:40;;;;;;;1.70;1.10;;;;;;;11.10;88.22;97284.41;108900;1252;72864;-87
2023/11/14 10:05:10;;;;;;;2.60;1.40;;;;;;;11.11;88.18;97279.36;108789;1253;64218;-86
2023/11/14 10:07:46;;;;;;;1.80;1.50;;;;;;;11.12;88.41;97278.36;109157;1252;60370;-84
2023/11/14 10:10:24;;;;;;;3.60;2.00;;;;;;;11.13;87.99;97271.20;109049;1252;72740;-86
2023/11/14 10:12:52;;;;;;;2.30;1.90;;;;;;;11.17;87.95;97272.83;108969;1253;73277;-86
2023/11/14 10:15:30;;;;;;;3.20;2.10;;;;;;;11.20;87.70;97271.90;109128;1253;73312;-89
2023/11/14 10:18:15;;;;;;;2.80;2.30;;;;;;;11.23;87.09;97270.92;109027;1253;61307;-90
2023/11/14 10:20:47;;;;;;;5.60;2.30;;;;;;;11.25;86.97;97274.15;108957;1252;61263;-90
2023/11/14 10:23:36;;;;;;;3.40;1.70;;;;;;;11.27;86.64;97274.54;108786;1255;72157;-91
2023/11/14 10:26:16;;;;;;;2.30;1.80;;;;;;;11.30;86.19;97269.79;108554;1257;74516;-87
2023/11/14 10:29:01;;;;;;;1.30;1.20;;;;;;;11.33;86.07;97270.91;108612;1256;73051;-90
2023/11/14 10:31:36;;;;;;;2.20;1.70;;;;;;;11.36;85.70;97263.61;108666;1257;61959;-88
2023/11/14 10:34:10;;;;;;;2.50;1.50;;;;;;;11.42;85.66;97265.63;108514;1256;60319;-89
2023/11/14 10:36:46;;;;;;;3.20;2.10;;;;;;;11.45;84.91;97270.02;108574;1256;73095;-88
2023/11/14 10:39:31;;;;;;;3.30;2.00;;;;;;;11.48;84.19;97276.16;108576;1257;75585;-87
2023/11/14 10:42:10;;;;;;;2.40;1.70;;;;;;;11.50;84.26;97281.91;108474;1257;74851;-86
2023/11/14 10:44:38;;;;;;;2.40;1.60;;;;;;;11.50;83.72;97282.64;108605;1256;60184;-86
2023/11/14 10:47:20;;;;;;;1.70;1.60;;;;;;;11.49;83.97;97296.14;108399;1256;60932;-86
2023/11/14 10:49:58;;;;;;;1.80;0.90;;;;;;;11.49;84.08;97300.84;108415;1256;73001;-87
2023/11/14 10:52:26;;;;;;;1.70;1.30;;;;;;;11.46;82.89;97309.37;108439;1257;75853;-88
2023/11/14 10:54:58;;;;;;;2.20;1.00;;;;;;;11.43;83.00;97317.91;108515;1257;71552;-87
2023/11/14 10:57:30;;;;;;;2.90;1.20;;;;;;;11.39;83.65;97316.02;108700;1257;63219;-86
2023/11/14 10:59:58;;;;;;;2.00;1.10;;;;;;;11.37;84.62;97321.60;108898;1256;60574;-87
2023/11/14 11:02:56;;;;;;;3.20;2.30;;;;;;;11.33;85.39;97315.17;108639;1257;72838;-90
2023/11/14 11:05:46;;;;;;;4.20;2.50;;;;;;;11.29;86.29;97313.22;108530;1257;73529;-88
2023/11/14 11:08:31;;;;;;;2.40;2.20;;;;;;;11.25;87.04;97317.69;108797;1254;72952;-89
2023/11/14 11:11:09;;;;;;;2.50;2.30;;;;;;;11.18;87.78;97314.48;108866;1254;60802;-89
2023/11/14 11:13:41;;;;;;;2.90;2.00;;;;;;;11.13;88.46;97326.41;108887;1255;60079;-88
2023/11/14 11:16:08;;;;;;;4.20;2.80;;;;;;;11.07;89.71;97325.55;108858;1254;73991;-89
2023/11/14 11:18:56;;;;;;;5.40;3.10;;;;;;;11.00;91.29;97325.59;109097;1254;73582;-88
2023/11/14 11:21:30;;;;;;;4.30;2.70;;;;;;;10.94;92.42;97334.05;108975;1254;72962;-87
2023/11/14 11:24:12;;;;;;;3.40;3.00;;;;;;;10.88;93.43;97331.16;108925;1254;61584;-88
2023/11/14 11:27:20;;;;;;;4.90;2.40;;;;;;;10.84;94.28;97335.41;108820;1254;60840;-88
2023/11/14 11:29:55;;;;;;;2.90;2.30;;;;;;;10.78;94.87;97333.95;109024;1254;74525;-87
2023/11/14 11:32:28;;;;;;;2.20;2.00;;;;;;;10.73;94.73;97322.42;109025;1254;74473;-88
2023/11/14 11:35:18;;;;;;;2.50;2.10;;;;;;;10.69;95.18;97326.89;108839;1254;73597;-87
2023/11/14 11:38:09;;;;;;;2.50;2.30;;;;;;;10.66;96.00;97330.58;109089;1254;59869;-88
2023/11/14 11:41:06;;;;;;;2.50;2.30;;;;;;;10.63;97.21;97327.41;109070;1254;62748;-90
2023/11/14 11:43:38;;;;;;;2.80;2.20;;;;;;;10.62;98.34;97327.52;109050;1254;72289;-87
2023/11/14 11:46:36;;;;;;;3.20;2.60;;;;;;;10.60;99.70;97328.38;109094;1254;74839;-88
2023/11/14 11:49:12;;;;;;;2.40;2.20;;;;;;;10.60;100.00;97330.17;109150;1257;72848;-88
2023/11/14 11:51:49;;;;;;;2.40;2.10;;;;;;;10.59;100.00;97333.15;109041;1254;60947;-88
2023/11/14 11:54:28;;;;;;;2.50;2.30;;;;;;;10.56;100.00;97323.16;109243;1254;61214;-86
2023/11/14 11:57:07;;;;;;;2.50;1.90;;;;;;;10.53;100.00;97330.48;108910;1254;71901;-86
2023/11/14 11:59:46;;;;;;;3.20;2.60;;;;;;;10.48;100.00;97328.35;108957;1254;74616;-88